Time;durP1;ratioP1;P1;durP2;ratioP2;P2;SDS_P1;SDS_P2;PMS_P1;PMS_P2;Temp;Humidity;BMP_temperature;BMP_pressure;BME280_temperature;BME280_humidity;BME280_pressure;Samples;Min_cycle;Max_cycle;Signal;HPM_P1;HPM_P2
2021/06/24 00:01:34;;;;;;;22.30;15.80;;;;;;;27.64;62.82;100373.22;1766598;79;22038;-78
2021/06/24 00:03:59;;;;;;;23.40;15.15;;;;;;;27.45;63.56;100376.37;1769997;79;21451;-79
2021/06/24 00:06:25;;;;;;;22.93;16.52;;;;;;;27.55;63.22;100371.02;1759055;79;21112;-78
2021/06/24 00:08:51;;;;;;;23.62;16.67;;;;;;;27.61;63.19;100358.83;1771659;79;20901;-79
2021/06/24 00:11:17;;;;;;;25.35;16.27;;;;;;;27.65;63.09;100350.44;1754789;79;20894;-79
2021/06/24 00:13:43;;;;;;;24.57;16.10;;;;;;;27.72;62.80;100351.02;1759591;79;21333;-79
2021/06/24 00:16:09;;;;;;;23.70;16.77;;;;;;;27.76;62.70;100354.81;1749472;79;26291;-79
2021/06/24 00:18:35;;;;;;;26.63;16.60;;;;;;;27.60;63.23;100353.14;1755884;79;27512;-79
2021/06/24 00:21:00;;;;;;;27.33;17.43;;;;;;;27.57;63.47;100353.92;1747797;79;20972;-79
2021/06/24 00:23:26;;;;;;;21.95;16.05;;;;;;;27.53;63.67;100355.56;1770784;79;21065;-79
2021/06/24 00:25:53;;;;;;;23.12;16.77;;;;;;;27.50;63.69;100366.09;1757647;79;22066;-79
2021/06/24 00:28:19;;;;;;;24.70;17.25;;;;;;;27.50;63.62;100371.00;1771006;79;21016;-79
2021/06/24 00:30:47;;;;;;;23.40;16.23;;;;;;;27.41;63.77;100378.00;1764655;79;21062;-77
2021/06/24 00:33:13;;;;;;;25.43;18.00;;;;;;;27.32;64.18;100380.39;1763857;79;21541;-78
2021/06/24 00:35:39;;;;;;;29.07;18.77;;;;;;;27.07;64.84;100387.80;1759565;79;21042;-78
2021/06/24 00:38:06;;;;;;;23.35;16.97;;;;;;;27.33;64.01;100386.62;1761386;79;21071;-78
2021/06/24 00:40:36;;;;;;;26.48;17.07;;;;;;;27.20;64.31;100379.19;1746520;79;21057;-78
2021/06/24 00:43:05;;;;;;;23.18;17.42;;;;;;;27.01;64.93;100379.34;1751180;79;21029;-78
2021/06/24 00:45:31;;;;;;;24.65;17.55;;;;;;;26.75;65.87;100384.55;1754260;80;21406;-78
2021/06/24 00:47:57;;;;;;;23.25;17.62;;;;;;;26.83;65.60;100378.69;1778956;79;21094;-78
2021/06/24 00:50:23;;;;;;;26.65;17.87;;;;;;;26.73;65.95;100375.87;1775967;79;21024;-77
2021/06/24 00:52:48;;;;;;;30.05;18.50;;;;;;;26.70;66.19;100375.04;1770596;79;21151;-78
2021/06/24 00:55:14;;;;;;;24.37;17.85;;;;;;;26.88;65.24;100373.84;1752039;79;20977;-77
2021/06/24 00:57:40;;;;;;;27.07;17.85;;;;;;;26.86;65.47;100367.33;1760938;79;21187;-77
2021/06/24 01:00:08;;;;;;;26.20;18.60;;;;;;;26.72;65.94;100371.52;1746196;79;21145;-77
2021/06/24 01:02:34;;;;;;;27.05;19.25;;;;;;;26.60;66.32;100374.91;1766402;79;21525;-77
2021/06/24 01:05:00;;;;;;;28.77;18.70;;;;;;;26.72;65.88;100371.52;1758960;79;20935;-77
2021/06/24 01:07:26;;;;;;;24.63;18.77;;;;;;;26.68;66.01;100373.14;1752483;79;21069;-78
2021/06/24 01:09:51;;;;;;;24.87;18.62;;;;;;;26.66;66.27;100375.27;1764891;79;20912;-77
2021/06/24 01:12:17;;;;;;;27.30;18.80;;;;;;;26.59;66.50;100370.04;1764336;80;20992;-78
2021/06/24 01:14:43;;;;;;;27.35;19.90;;;;;;;26.79;65.78;100364.01;1767076;79;21063;-78
2021/06/24 01:17:09;;;;;;;29.75;19.17;;;;;;;26.68;66.07;100372.59;1749255;79;20925;-78
2021/06/24 01:19:35;;;;;;;24.82;18.57;;;;;;;26.59;66.38;100373.30;1770389;79;20900;-78
2021/06/24 01:22:00;;;;;;;27.17;20.12;;;;;;;26.62;66.24;100380.91;1765934;79;20848;-78
2021/06/24 01:24:27;;;;;;;26.77;19.90;;;;;;;26.50;66.58;100377.80;1763803;80;20896;-78
2021/06/24 01:26:53;;;;;;;26.03;20.27;;;;;;;26.48;66.60;100366.97;1767344;79;21088;-78
2021/06/24 01:29:18;;;;;;;25.72;19.45;;;;;;;26.65;66.09;100364.14;1760331;79;20882;-78
2021/06/24 01:31:44;;;;;;;30.82;19.92;;;;;;;26.62;65.99;100360.05;1765573;79;21011;-79
2021/06/24 01:34:11;;;;;;;30.88;20.30;;;;;;;26.66;65.90;100360.37;1774002;79;21016;-78
2021/06/24 01:36:37;;;;;;;26.37;19.12;;;;;;;26.68;65.69;100356.88;1762254;79;21250;-78
2021/06/24 01:39:05;;;;;;;24.55;19.17;;;;;;;26.76;65.44;100350.98;1746289;79;21071;-78
2021/06/24 01:41:31;;;;;;;27.60;19.27;;;;;;;26.71;65.60;100344.69;1746126;79;21844;-78
2021/06/24 01:43:57;;;;;;;28.32;18.30;;;;;;;26.80;65.29;100341.27;1750945;79;21095;-77
2021/06/24 01:46:22;;;;;;;25.43;19.23;;;;;;;26.76;65.41;100338.78;1775573;79;21131;-79
2021/06/24 01:48:48;;;;;;;28.20;19.50;;;;;;;26.76;65.27;100332.02;1767211;79;20925;-79
2021/06/24 01:51:14;;;;;;;28.12;19.30;;;;;;;26.76;65.40;100332.02;1744680;79;22030;-77
2021/06/24 01:53:40;;;;;;;30.30;19.65;;;;;;;26.76;65.40;100332.02;1765026;79;20879;-78
2021/06/24 01:56:06;;;;;;;25.27;18.65;;;;;;;26.80;65.19;100344.49;1765624;79;20888;-78
2021/06/24 01:58:31;;;;;;;22.42;17.67;;;;;;;26.58;66.04;100348.63;1767576;79;20883;-78
2021/06/24 02:00:59;;;;;;;27.22;19.00;;;;;;;26.65;65.86;100346.53;1778277;80;20935;-78
2021/06/24 02:03:25;;;;;;;26.60;19.27;;;;;;;26.62;66.04;100344.34;1780617;79;21122;-79
2021/06/24 02:05:53;;;;;;;27.42;19.27;;;;;;;26.75;65.53;100337.14;1771243;79;21091;-78
2021/06/24 02:08:21;;;;;;;26.37;20.20;;;;;;;26.80;65.32;100337.20;1769082;79;21873;-78
2021/06/24 02:10:47;;;;;;;25.50;19.52;;;;;;;26.64;65.83;100344.89;1762720;80;21320;-77
2021/06/24 02:13:13;;;;;;;29.57;20.80;;;;;;;26.49;66.07;100322.03;1765240;79;21451;-77
2021/06/24 02:15:39;;;;;;;28.62;19.45;;;;;;;26.49;66.07;100322.03;1776791;79;21327;-77
2021/06/24 02:18:05;;;;;;;31.33;19.87;;;;;;;26.61;65.90;100334.57;1754786;79;20868;-77
2021/06/24 02:20:31;;;;;;;25.57;19.82;;;;;;;26.58;66.07;100343.20;1773284;79;20894;-77
2021/06/24 02:22:56;;;;;;;29.12;19.42;;;;;;;26.62;65.79;100338.37;1766884;79;20835;-77
2021/06/24 02:25:22;;;;;;;27.32;18.32;;;;;;;26.58;66.06;100337.25;1771641;79;20858;-77
2021/06/24 02:27:48;;;;;;;26.73;19.73;;;;;;;26.67;65.79;100336.27;1760437;79;21070;-77
2021/06/24 02:30:15;;;;;;;26.05;18.52;;;;;;;26.77;65.43;100326.88;1770166;79;20890;-77
2021/06/24 02:32:40;;;;;;;26.73;19.95;;;;;;;26.82;65.31;100320.14;1772922;79;21175;-76
2021/06/24 02:35:09;;;;;;;30.02;20.12;;;;;;;26.65;65.64;100328.41;1756744;79;20980;-77
2021/06/24 02:37:34;;;;;;;29.12;19.23;;;;;;;26.61;65.79;100329.16;1758665;79;21068;-77
2021/06/24 02:40:01;;;;;;;25.27;18.45;;;;;;;26.66;65.76;100335.98;1759495;79;21999;-77
2021/06/24 02:42:26;;;;;;;24.20;17.90;;;;;;;26.74;65.58;100345.02;1760548;79;20957;-77
2021/06/24 02:44:52;;;;;;;29.25;19.02;;;;;;;26.82;65.42;100347.23;1764087;79;20979;-78
2021/06/24 02:47:18;;;;;;;29.92;18.10;;;;;;;26.83;65.42;100348.04;1779348;79;20880;-78
2021/06/24 02:49:44;;;;;;;26.50;18.07;;;;;;;26.90;65.19;100344.58;1751345;79;22046;-78
2021/06/24 02:52:09;;;;;;;27.37;18.35;;;;;;;26.98;64.89;100343.28;1765393;79;22128;-78
2021/06/24 02:54:35;;;;;;;25.72;18.37;;;;;;;26.98;64.97;100340.02;1746016;79;21168;-78
2021/06/24 02:57:01;;;;;;;24.77;18.55;;;;;;;26.89;65.29;100331.29;1759532;79;20896;-78
2021/06/24 02:59:28;;;;;;;24.85;18.20;;;;;;;26.87;65.43;100324.77;1743663;79;21084;-78
2021/06/24 03:01:55;;;;;;;23.63;17.07;;;;;;;26.94;65.40;100327.25;1754876;79;21987;-78
2021/06/24 03:04:22;;;;;;;24.32;16.75;;;;;;;26.97;65.20;100329.44;1770436;79;21291;-78
2021/06/24 03:06:52;;;;;;;20.70;15.93;;;;;;;27.15;64.72;100335.78;1746477;79;21021;-78
2021/06/24 03:09:18;;;;;;;21.57;15.15;;;;;;;27.26;64.31;100339.92;1768060;79;21058;-78
2021/06/24 03:11:44;;;;;;;25.48;15.83;;;;;;;27.20;64.53;100343.94;1758039;79;21817;-78
2021/06/24 03:14:10;;;;;;;23.15;15.45;;;;;;;27.28;64.29;100341.27;1752340;79;21828;-78
2021/06/24 03:16:35;;;;;;;21.57;14.28;;;;;;;27.34;64.10;100346.23;1749148;79;21895;-78
2021/06/24 03:19:01;;;;;;;22.87;16.97;;;;;;;27.22;64.24;100345.03;1752184;79;21257;-79
2021/06/24 03:21:27;;;;;;;22.27;15.90;;;;;;;26.86;65.58;100345.64;1763162;79;21079;-78
2021/06/24 03:23:53;;;;;;;25.10;16.57;;;;;;;26.84;65.77;100355.91;1770884;79;20957;-78
2021/06/24 03:26:18;;;;;;;25.10;17.02;;;;;;;26.89;65.61;100351.61;1772223;79;21005;-78
2021/06/24 03:28:44;;;;;;;23.87;16.87;;;;;;;26.77;66.32;100352.63;1746423;79;21749;-78
2021/06/24 03:31:10;;;;;;;21.90;16.42;;;;;;;26.80;66.41;100351.27;1779623;80;20853;-78
2021/06/24 03:33:36;;;;;;;26.82;15.98;;;;;;;27.03;65.75;100353.62;1770533;80;20927;-77
2021/06/24 03:36:03;;;;;;;23.42;16.77;;;;;;;27.11;65.35;100350.13;1760291;79;20882;-77
2021/06/24 03:38:29;;;;;;;26.82;16.80;;;;;;;26.85;66.22;100352.13;1746594;79;21025;-78
2021/06/24 03:40:55;;;;;;;21.17;15.80;;;;;;;27.15;65.23;100349.89;1765494;79;22492;-78
2021/06/24 03:43:20;;;;;;;24.20;17.07;;;;;;;27.30;64.71;100350.50;1765351;79;21140;-78
2021/06/24 03:45:46;;;;;;;25.17;17.67;;;;;;;27.23;65.09;100348.84;1759446;79;21113;-78
2021/06/24 03:48:12;;;;;;;26.02;18.48;;;;;;;27.20;65.37;100350.72;1779288;79;20979;-78
2021/06/24 03:50:38;;;;;;;24.60;17.30;;;;;;;27.07;65.78;100345.78;1750929;79;20984;-78
2021/06/24 03:53:04;;;;;;;26.97;18.53;;;;;;;26.90;66.36;100347.84;1746870;79;21127;-78
2021/06/24 03:55:37;;;;;;;27.07;17.67;;;;;;;26.88;66.73;100348.09;1759000;79;20955;-78
2021/06/24 03:58:04;;;;;;;26.00;18.82;;;;;;;27.02;66.37;100338.42;1754126;79;21009;-78
2021/06/24 04:00:32;;;;;;;25.35;18.73;;;;;;;26.82;66.99;100341.81;1760467;79;21547;-77
2021/06/24 04:02:58;;;;;;;25.08;17.57;;;;;;;26.97;66.47;100336.22;1749809;79;21100;-78
2021/06/24 04:05:23;;;;;;;27.00;18.02;;;;;;;27.40;65.32;100332.97;1746420;79;21078;-77
2021/06/24 04:07:49;;;;;;;25.95;17.87;;;;;;;27.51;64.86;100333.28;1758196;79;21005;-78
2021/06/24 04:10:15;;;;;;;25.60;18.02;;;;;;;27.28;65.33;100332.33;1768144;79;21254;-77
2021/06/24 04:12:41;;;;;;;23.27;17.23;;;;;;;27.37;65.19;100330.78;1764036;79;20969;-78
2021/06/24 04:15:08;;;;;;;25.60;18.00;;;;;;;27.23;65.41;100324.44;1756499;79;20980;-79
2021/06/24 04:17:33;;;;;;;23.30;18.07;;;;;;;27.10;65.97;100318.66;1753940;79;21874;-78
2021/06/24 04:19:59;;;;;;;26.87;18.48;;;;;;;27.22;65.55;100320.11;1754024;79;21761;-79
2021/06/24 04:22:25;;;;;;;26.50;18.17;;;;;;;27.22;65.74;100328.25;1758118;79;21612;-79
2021/06/24 04:24:51;;;;;;;28.60;18.15;;;;;;;27.11;66.40;100330.60;1759070;79;20941;-79
2021/06/24 04:27:16;;;;;;;26.65;19.02;;;;;;;27.09;66.35;100329.25;1752938;79;20908;-79
2021/06/24 04:29:42;;;;;;;33.23;20.40;;;;;;;27.06;66.64;100325.16;1766191;79;22014;-79
2021/06/24 04:32:08;;;;;;;28.02;18.82;;;;;;;26.93;66.99;100328.34;1762707;79;20999;-79
2021/06/24 04:34:34;;;;;;;27.80;20.50;;;;;;;26.87;67.28;100341.03;1756735;79;21076;-80
2021/06/24 04:36:59;;;;;;;29.40;19.73;;;;;;;26.77;67.63;100335.01;1771886;79;20988;-77
2021/06/24 04:39:25;;;;;;;26.73;19.87;;;;;;;26.89;67.39;100321.80;1751521;79;21179;-77
2021/06/24 04:41:51;;;;;;;29.23;21.73;;;;;;;26.80;67.62;100314.17;1752631;79;21140;-79
2021/06/24 04:44:17;;;;;;;26.85;20.48;;;;;;;26.99;66.71;100298.84;1759028;79;21138;-78
2021/06/24 04:46:42;;;;;;;29.63;19.48;;;;;;;27.36;65.80;100308.80;1761290;79;20933;-78
2021/06/24 04:49:08;;;;;;;28.07;19.85;;;;;;;27.46;65.67;100314.28;1772590;79;20862;-79
2021/06/24 04:51:34;;;;;;;30.80;19.65;;;;;;;27.41;65.49;100315.63;1767829;79;21102;-81
2021/06/24 04:54:01;;;;;;;29.90;20.62;;;;;;;27.33;65.83;100316.11;1746698;79;22104;-81
2021/06/24 04:56:27;;;;;;;;;;;;;;;27.18;66.22;100310.86;1768834;79;21103;-79
2021/06/24 04:58:53;;;;;;;27.27;17.30;;;;;;;27.20;66.20;100307.34;1755855;78;27103;-81
2021/06/24 05:01:18;;;;;;;28.45;20.05;;;;;;;27.43;65.48;100322.95;1760727;79;21019;-78
2021/06/24 05:03:44;;;;;;;27.13;19.48;;;;;;;27.48;65.08;100324.31;1777542;79;21823;-78
2021/06/24 05:06:11;;;;;;;31.15;21.15;;;;;;;27.69;64.66;100318.44;1767458;79;21843;-79
2021/06/24 05:08:37;;;;;;;28.77;19.45;;;;;;;27.53;65.09;100317.58;1761174;79;21240;-81
2021/06/24 05:11:03;;;;;;;26.48;19.25;;;;;;;27.57;65.17;100311.08;1761237;79;21092;-80
2021/06/24 05:13:29;;;;;;;30.70;20.15;;;;;;;27.75;64.86;100313.86;1749690;79;21056;-80
2021/06/24 05:15:54;;;;;;;30.90;19.23;;;;;;;27.61;65.07;100303.20;1751126;79;20917;-76
2021/06/24 05:18:20;;;;;;;28.35;20.27;;;;;;;27.55;65.18;100299.13;1746628;79;21054;-80
2021/06/24 05:20:46;;;;;;;29.80;19.40;;;;;;;27.51;65.39;100295.30;1754045;79;20882;-84
2021/06/24 05:23:14;;;;;;;23.03;17.13;;;;;;;27.70;65.20;100294.30;1765145;79;21058;-79
2021/06/24 05:25:42;;;;;;;27.22;17.30;;;;;;;27.80;64.83;100303.56;1761874;79;21505;-82
2021/06/24 05:28:08;;;;;;;26.37;16.70;;;;;;;27.99;64.46;100314.75;1770670;79;21002;-81
2021/06/24 05:30:34;;;;;;;23.02;15.90;;;;;;;28.00;64.27;100301.44;1773500;80;21212;-87
2021/06/24 05:33:00;;;;;;;21.90;15.03;;;;;;;28.26;63.58;100290.90;1775204;80;21834;-79
2021/06/24 05:35:26;;;;;;;21.62;15.43;;;;;;;28.25;63.14;100291.98;1775013;80;21067;-78
2021/06/24 05:37:52;;;;;;;27.42;14.98;;;;;;;28.22;63.13;100291.71;1774820;80;21123;-78
2021/06/24 05:40:18;;;;;;;26.67;16.17;;;;;;;28.45;62.64;100285.73;1777083;80;21668;-78
2021/06/24 05:42:44;;;;;;;22.32;15.18;;;;;;;28.37;62.79;100275.95;1771630;80;21142;-76
2021/06/24 05:45:11;;;;;;;24.67;16.12;;;;;;;28.60;62.44;100274.05;1774854;80;20934;-78
2021/06/24 05:47:37;;;;;;;24.40;15.70;;;;;;;28.38;63.21;100265.36;1773675;80;20998;-83
2021/06/24 05:50:03;;;;;;;25.62;14.30;;;;;;;28.39;63.06;100262.93;1776998;78;20942;-85
2021/06/24 05:52:29;;;;;;;21.07;12.65;;;;;;;28.62;62.07;100273.78;1775106;80;21806;-78
2021/06/24 05:54:55;;;;;;;19.33;13.97;;;;;;;28.77;61.92;100276.47;1771583;80;20943;-80
2021/06/24 05:57:21;;;;;;;21.35;13.08;;;;;;;28.67;62.03;100282.47;1776226;78;21234;-78
2021/06/24 05:59:46;;;;;;;24.67;12.68;;;;;;;28.83;61.77;100278.65;1775688;80;21094;-79
2021/06/24 06:02:12;;;;;;;16.20;11.95;;;;;;;28.69;61.60;100283.03;1775580;80;20942;-76
2021/06/24 06:04:38;;;;;;;18.50;11.75;;;;;;;28.86;61.01;100284.89;1773330;80;21053;-77
2021/06/24 06:07:04;;;;;;;19.00;11.50;;;;;;;28.90;60.64;100287.34;1772242;80;21087;-77
2021/06/24 06:09:29;;;;;;;19.52;11.95;;;;;;;29.04;60.66;100278.59;1770652;80;20937;-77
2021/06/24 06:11:55;;;;;;;20.23;12.53;;;;;;;28.96;60.40;100275.89;1775481;78;23015;-77
2021/06/24 06:14:21;;;;;;;19.05;11.12;;;;;;;28.85;60.90;100266.95;1774880;78;20856;-78
2021/06/24 06:16:47;;;;;;;16.65;11.30;;;;;;;28.98;60.85;100263.66;1770031;80;20852;-77
2021/06/24 06:19:13;;;;;;;21.55;12.53;;;;;;;29.12;60.58;100247.57;1774734;80;21831;-78
2021/06/24 06:21:39;;;;;;;20.20;12.33;;;;;;;29.11;60.53;100250.56;1767903;80;21058;-77
2021/06/24 06:24:05;;;;;;;17.77;11.67;;;;;;;29.19;60.58;100263.58;1774413;78;20876;-76
2021/06/24 06:26:31;;;;;;;19.32;10.70;;;;;;;29.17;60.35;100268.49;1774451;80;21021;-77
2021/06/24 06:29:02;;;;;;;17.98;10.93;;;;;;;29.30;59.96;100262.50;1773670;78;21396;-79
2021/06/24 06:31:25;;;;;;;16.60;10.72;;;;;;;29.32;59.69;100235.02;1768663;79;20971;-77
2021/06/24 06:33:50;;;;;;;16.00;10.90;;;;;;;28.94;60.38;100223.16;1774871;80;20875;-79
2021/06/24 06:36:16;;;;;;;15.05;11.00;;;;;;;28.93;60.60;100229.70;1770224;80;20974;-78
2021/06/24 06:38:42;;;;;;;16.12;10.98;;;;;;;29.05;60.28;100229.92;1769913;80;21032;-78
2021/06/24 06:41:08;;;;;;;15.53;10.45;;;;;;;28.89;60.54;100229.98;1773678;80;21669;-79
2021/06/24 06:43:34;;;;;;;14.67;10.63;;;;;;;28.86;60.40;100221.02;1773590;80;21101;-77
2021/06/24 06:45:59;;;;;;;19.95;11.10;;;;;;;28.77;60.56;100216.68;1775247;79;20930;-77
2021/06/24 06:48:25;;;;;;;17.20;10.95;;;;;;;28.89;60.37;100216.38;1777328;79;22155;-76
2021/06/24 06:50:51;;;;;;;17.00;10.78;;;;;;;28.97;60.29;100210.92;1770406;78;21119;-83
2021/06/24 06:53:17;;;;;;;18.87;10.20;;;;;;;28.83;60.38;100206.62;1773946;79;21056;-82
2021/06/24 06:55:42;;;;;;;16.62;10.58;;;;;;;28.88;60.30;100194.91;1777020;80;21999;-84
2021/06/24 06:58:08;;;;;;;15.93;10.10;;;;;;;28.86;60.47;100188.39;1771855;80;20930;-82
2021/06/24 07:00:34;;;;;;;15.23;9.65;;;;;;;28.93;60.45;100200.33;1773520;80;20911;-84
2021/06/24 07:03:00;;;;;;;19.35;11.45;;;;;;;28.88;60.73;100232.41;1775532;79;20910;-82
2021/06/24 07:05:26;;;;;;;18.27;11.63;;;;;;;28.74;61.01;100269.42;1773718;78;20939;-79
2021/06/24 07:07:52;;;;;;;18.47;12.23;;;;;;;28.50;62.04;100294.42;1777591;80;27611;-83
2021/06/24 07:10:17;;;;;;;19.83;12.00;;;;;;;27.94;63.88;100295.17;1755532;78;20949;-80
2021/06/24 07:12:43;;;;;;;16.80;11.80;;;;;;;27.83;64.53;100287.55;1760818;78;25183;-82
2021/06/24 07:15:10;;;;;;;23.02;15.30;;;;;;;27.20;67.12;100316.83;1770546;78;20898;-86
2021/06/24 07:17:35;;;;;;;22.70;16.77;;;;;;;26.58;70.13;100326.95;1766966;79;21004;-84
2021/06/24 07:20:02;;;;;;;25.48;17.25;;;;;;;26.59;70.80;100320.48;1766333;79;21064;-82
2021/06/24 07:22:28;;;;;;;28.50;20.23;;;;;;;26.49;70.99;100338.27;1765458;79;20957;-82
2021/06/24 07:24:54;;;;;;;31.82;21.65;;;;;;;26.07;72.54;100398.50;1748506;79;20901;-84
2021/06/24 07:27:19;;;;;;;32.30;20.00;;;;;;;25.51;75.88;100435.61;1762500;79;20870;-85
2021/06/24 07:29:45;;;;;;;25.70;16.93;;;;;;;25.51;75.88;100435.61;1765455;79;20951;-83
2021/06/24 07:32:11;;;;;;;15.83;9.65;;;;;;;25.15;76.60;100453.97;1770615;79;21419;-83
2021/06/24 07:34:37;;;;;;;10.32;5.92;;;;;;;24.30;80.94;100434.36;1760732;79;20868;-81
2021/06/24 07:37:03;;;;;;;10.82;5.22;;;;;;;23.68;80.85;100465.95;1766600;79;21077;-80
2021/06/24 07:39:30;;;;;;;9.68;4.95;;;;;;;23.09;84.04;100474.00;1768405;79;21005;-79
2021/06/24 07:41:56;;;;;;;9.28;4.40;;;;;;;22.88;82.85;100534.02;1755003;79;21009;-78
2021/06/24 07:44:22;;;;;;;10.28;4.75;;;;;;;22.61;83.98;100531.38;1765076;79;21153;-82
2021/06/24 07:46:47;;;;;;;9.58;5.12;;;;;;;22.82;84.05;100500.47;1767465;79;21045;-83
2021/06/24 07:49:13;;;;;;;13.40;5.25;;;;;;;22.82;84.05;100500.47;1765879;81;20967;-82
2021/06/24 07:51:39;;;;;;;11.50;5.42;;;;;;;22.59;84.99;100458.42;1765806;80;21231;-85
2021/06/24 07:54:05;;;;;;;12.75;6.10;;;;;;;22.15;86.62;100457.70;1770850;78;21014;-81
2021/06/24 07:56:30;;;;;;;15.63;6.20;;;;;;;22.24;86.06;100432.14;1814277;78;21275;-83
2021/06/24 07:58:56;;;;;;;15.15;6.42;;;;;;;22.32;85.32;100397.41;1817006;76;20862;-79
2021/06/24 08:01:22;;;;;;;14.80;5.67;;;;;;;22.28;84.63;100424.95;1784244;78;20907;-80
2021/06/24 08:03:48;;;;;;;15.35;6.10;;;;;;;22.54;83.35;100408.50;1763008;78;21038;-80
2021/06/24 08:06:14;;;;;;;23.10;7.20;;;;;;;22.64;82.12;100400.37;1759359;79;21076;-79
2021/06/24 08:08:40;;;;;;;14.13;6.03;;;;;;;22.55;83.72;100325.34;1776374;78;21295;-83
2021/06/24 08:11:06;;;;;;;11.97;5.37;;;;;;;;;;1764388;78;21653;-82
2021/06/24 08:13:32;;;;;;;16.00;6.22;;;;;;;22.66;82.25;100270.42;1770407;79;20912;-84
2021/06/24 08:15:58;;;;;;;14.98;6.08;;;;;;;22.59;82.03;100240.91;1739245;81;20917;-84
2021/06/24 08:18:24;;;;;;;16.73;5.67;;;;;;;22.64;81.30;100202.02;1725723;81;20905;-82
2021/06/24 08:20:50;;;;;;;14.40;5.70;;;;;;;22.85;81.37;100199.23;1733874;77;21164;-81
2021/06/24 08:23:16;;;;;;;15.60;5.67;;;;;;;22.75;82.04;100199.02;1771937;80;20945;-80
2021/06/24 08:25:43;;;;;;;11.27;5.50;;;;;;;22.79;82.60;100165.17;1773416;78;21021;-81
2021/06/24 08:28:08;;;;;;;14.93;6.00;;;;;;;22.87;81.49;100183.67;1775146;78;21295;-81
2021/06/24 08:30:37;;;;;;;14.87;5.87;;;;;;;22.85;81.06;100183.07;1773267;78;20887;-80
2021/06/24 08:33:03;;;;;;;13.90;5.67;;;;;;;23.04;81.64;100185.61;1774607;78;20875;-79
2021/06/24 08:35:29;;;;;;;14.38;5.85;;;;;;;23.16;81.13;100199.09;1760071;78;21020;-85
2021/06/24 08:37:55;;;;;;;14.25;5.80;;;;;;;23.18;81.90;100200.50;1756563;80;20912;-85
2021/06/24 08:40:20;;;;;;;18.98;5.83;;;;;;;23.21;81.55;100212.16;1755971;81;21537;-86
2021/06/24 08:42:46;;;;;;;14.40;5.47;;;;;;;23.30;81.72;100199.95;1759670;80;21133;-85
2021/06/24 08:45:13;;;;;;;13.13;5.60;;;;;;;23.29;81.30;100168.66;1750680;81;21101;-84
2021/06/24 08:47:44;;;;;;;18.32;5.25;;;;;;;23.48;81.35;100163.08;1766700;79;20963;-85
2021/06/24 08:50:11;;;;;;;11.70;5.22;;;;;;;23.76;80.02;100174.89;1763758;80;21011;-82
2021/06/24 08:52:37;;;;;;;11.70;4.75;;;;;;;23.79;78.58;100178.45;1756793;79;21365;-84
2021/06/24 08:55:04;;;;;;;12.98;4.90;;;;;;;24.00;78.62;100158.89;1759899;81;20897;-83
2021/06/24 08:57:31;;;;;;;13.03;5.08;;;;;;;23.96;78.93;100130.77;1763833;80;21227;-83
2021/06/24 08:59:59;;;;;;;12.25;4.45;;;;;;;23.90;79.50;100123.66;1737051;79;20961;-80
2021/06/24 09:02:39;;;;;;;13.43;4.80;;;;;;;23.87;78.77;100138.98;1759036;77;21137;-80
2021/06/24 09:05:06;;;;;;;13.40;4.90;;;;;;;24.06;78.18;100180.55;1766498;80;21079;-82
2021/06/24 09:07:32;;;;;;;13.88;5.20;;;;;;;24.07;79.19;100197.84;1774507;78;21010;-79
2021/06/24 09:09:58;;;;;;;14.68;5.45;;;;;;;24.23;79.05;100194.05;1786663;80;21177;-80
2021/06/24 09:12:25;;;;;;;15.55;5.80;;;;;;;24.19;78.90;100201.28;1778004;80;21015;-80
2021/06/24 09:15:00;;;;;;;17.10;5.62;;;;;;;24.25;78.28;100206.20;1788792;80;21065;-79
2021/06/24 09:17:41;;;;;;;17.62;6.03;;;;;;;24.58;77.29;100203.76;1746077;77;21026;-80
2021/06/24 09:20:29;;;;;;;17.17;5.58;;;;;;;24.37;78.40;100201.54;1781325;80;21675;-80
2021/06/24 09:23:17;;;;;;;11.97;5.47;;;;;;;24.35;77.71;100211.77;1785454;77;21131;-81
2021/06/24 09:25:50;;;;;;;17.92;5.95;;;;;;;24.27;77.76;100214.89;1781318;80;21278;-79
2021/06/24 09:28:16;;;;;;;14.13;5.58;;;;;;;24.29;78.30;100220.85;1779794;79;21087;-80
2021/06/24 09:30:43;;;;;;;15.10;6.37;;;;;;;24.50;78.09;100230.10;1789266;77;21315;-81
2021/06/24 09:33:17;;;;;;;15.72;6.35;;;;;;;24.65;77.17;100221.42;1786633;78;21014;-81
2021/06/24 09:35:55;;;;;;;13.90;5.12;;;;;;;24.80;77.16;100233.53;1785364;80;21277;-81
2021/06/24 09:38:21;;;;;;;14.75;5.72;;;;;;;24.95;75.54;100244.52;1766487;77;21685;-81
2021/06/24 09:40:55;;;;;;;10.45;5.25;;;;;;;24.94;75.94;100244.77;1794647;78;20974;-81
2021/06/24 09:43:36;;;;;;;18.20;6.42;;;;;;;24.91;76.17;100246.11;1817760;78;21145;-80
2021/06/24 09:46:15;;;;;;;13.15;5.58;;;;;;;25.06;75.86;100256.28;1819584;78;21073;-81
2021/06/24 09:48:44;;;;;;;15.35;5.65;;;;;;;25.20;76.36;100259.44;1818017;78;21135;-81
2021/06/24 09:51:19;;;;;;;12.47;5.60;;;;;;;25.20;75.71;100263.49;1824095;78;21023;-81
2021/06/24 09:54:01;;;;;;;9.75;5.70;;;;;;;25.31;75.66;100266.66;1812896;77;21038;-80
2021/06/24 09:56:38;;;;;;;10.40;5.17;;;;;;;25.57;75.77;100264.24;1816191;77;21039;-83
2021/06/24 09:59:05;;;;;;;12.33;4.92;;;;;;;25.75;73.75;100264.45;1823232;77;21632;-82
2021/06/24 10:01:36;;;;;;;;;;;;;;;25.79;73.68;100274.52;1810937;77;21285;-78
2021/06/24 10:04:06;;;;;;;12.50;4.92;;;;;;;25.92;73.33;100276.53;1824354;77;20580;-85
2021/06/24 10:06:32;;;;;;;14.93;4.75;;;;;;;25.97;73.64;100281.47;1825840;77;21267;-80
2021/06/24 10:08:58;;;;;;;10.38;4.78;;;;;;;26.21;73.26;100291.16;1815601;78;21215;-83
2021/06/24 10:11:24;;;;;;;8.65;4.00;;;;;;;26.23;71.69;100289.04;1817763;76;20986;-83
2021/06/24 10:13:50;;;;;;;12.80;4.55;;;;;;;26.45;72.36;100296.52;1810697;78;21371;-79
2021/06/24 10:16:16;;;;;;;9.60;4.80;;;;;;;26.81;69.92;100296.81;1813128;78;20926;-84
2021/06/24 10:18:48;;;;;;;8.05;4.50;;;;;;;26.56;71.33;100293.91;1811743;78;21011;-82
2021/06/24 10:21:15;;;;;;;11.38;4.40;;;;;;;26.57;70.43;100294.16;1815382;76;38319;-86
2021/06/24 10:24:04;;;;;;;10.23;4.53;;;;;;;26.59;70.19;100301.52;1812749;78;21178;-82
2021/06/24 10:26:31;;;;;;;9.65;4.40;;;;;;;26.77;70.35;100303.02;1815317;78;21013;-78
2021/06/24 10:29:20;;;;;;;10.32;5.10;;;;;;;26.91;69.75;100297.95;1813436;78;20938;-83
2021/06/24 10:31:50;;;;;;;9.45;4.33;;;;;;;27.14;70.03;100297.55;1803647;78;21299;-82
2021/06/24 10:34:17;;;;;;;11.43;4.65;;;;;;;27.37;69.42;100309.09;1810236;78;21109;-81
2021/06/24 10:37:12;;;;;;;10.05;4.33;;;;;;;27.37;68.19;100295.53;1811696;76;21055;-81
2021/06/24 10:39:38;;;;;;;6.55;3.62;;;;;;;27.45;67.28;100286.88;1765146;79;21802;-84
2021/06/24 10:42:11;;;;;;;9.88;4.20;;;;;;;27.60;67.43;100283.41;1766059;78;21007;-88
2021/06/24 10:44:46;;;;;;;9.68;4.03;;;;;;;27.71;67.57;100280.19;1749924;78;21044;-83
2021/06/24 10:47:12;;;;;;;11.03;4.08;;;;;;;27.85;68.06;100271.80;1739200;80;21096;-84
2021/06/24 10:49:38;;;;;;;11.13;3.87;;;;;;;27.83;66.95;100264.48;1764001;78;21334;-83
2021/06/24 10:52:25;;;;;;;8.38;3.70;;;;;;;27.91;66.40;100263.94;1818069;78;21162;-80
2021/06/24 10:54:54;;;;;;;11.03;4.10;;;;;;;28.01;66.06;100265.88;1790259;78;21630;-81
2021/06/24 10:57:34;;;;;;;9.35;3.60;;;;;;;27.80;66.57;100275.88;1768025;78;21106;-78
2021/06/24 11:00:39;;;;;;;9.48;3.67;;;;;;;27.92;66.26;100269.66;1758349;79;21024;-81
2021/06/24 11:03:10;;;;;;;9.15;4.22;;;;;;;28.07;65.64;100259.92;1765785;79;21041;-78
2021/06/24 11:05:47;;;;;;;9.03;3.90;;;;;;;28.18;66.75;100254.76;1754721;79;21076;-81
2021/06/24 11:08:16;;;;;;;8.98;3.75;;;;;;;28.25;65.62;100258.03;1772880;78;21271;-79
2021/06/24 11:10:59;;;;;;;7.75;3.90;;;;;;;28.14;65.61;100254.21;1781400;78;21747;-80
2021/06/24 11:13:42;;;;;;;12.28;3.75;;;;;;;28.21;66.02;100255.58;1778679;80;21647;-80
2021/06/24 11:16:19;;;;;;;9.25;4.33;;;;;;;28.53;65.77;100255.84;1788638;80;21376;-80